Nearby METAR Reports

 

KMTN - Baltimore/Martin, Maryland, USA
Distance from station: SSE 8mi, 13km
Updated: Tue, 04-Aug-2015 12:45pm EDT
Few Clouds
Few Clouds
 Wind from WSW
Wind: WSW 12 mph , 19 km/h
Temperature: 90°F , 32°C
Heat Index: 96°F , 36°C
Dew Point: 70°F , 21°C
Humidity: 52%
Barometer: 29.92 inHg , 1013.2 hPa
Clouds: Few Clouds
Visibility: 10 miles , 16 km
Cloud details: Few Clouds 10000 ft
2015/08/04 16:45 KMTN 041645Z 25010KT 10SM FEW100 32/21 A2992
KDMH - Baltimore/Dwntwn, Maryland, USA
Distance from station: SW 12mi, 19km
Updated: Tue, 04-Aug-2015 12:54pm EDT

 
Temperature: 90°F , 32°C
Heat Index: 92°F , 33°C
Dew Point: 64°F , 18°C
Humidity: 43%
Barometer: 29.91 inHg , 1012.9 hPa
2015/08/04 16:54 KDMH 041654Z AUTO 32/18 A2991 RMK AO1 SLP129 T03170178
 
KBWI - Balto/Wash Intl, Maryland, USA
Distance from station: SSW 20mi, 33km
Updated: Tue, 04-Aug-2015 12:54pm EDT
Few Clouds
Few Clouds
 Wind from W
Wind: W 10 mph , 17 km/h
Temperature: 88°F , 31°C
Heat Index: 92°F , 33°C
Dew Point: 68°F , 20°C
Humidity: 52%
Barometer: 29.91 inHg , 1012.9 hPa
Clouds: Few Clouds
Visibility: 10 miles , 16 km
Cloud details: Few Clouds 5000 ft
2015/08/04 16:54 KBWI 041654Z 27009KT 10SM FEW050 31/20 A2991 RMK AO2 SLP128 T03060200
KDMW - Carroll Cnty, Maryland, USA
Distance from station: WNW 30mi, 48km
Updated: Tue, 04-Aug-2015 1:30pm EDT

 Wind from WNW
Wind: WNW 9 mph , 15 km/h
Visibility: 10 miles , 16 km
2015/08/04 17:30 KDMW 041730Z AUTO 30008KT 10SM SCT 30/16 A2995 RMK AO2
 
KNAK - Annapolis/Naval, Maryland, USA
Distance from station: S 30mi, 48km
Updated: Tue, 04-Aug-2015 12:54pm EDT
Clear
Clear
 Wind from WSW
Wind: WSW 9 mph , 15 km/h
Temperature: 88°F , 31°C
Heat Index: 90°F , 32°C
Dew Point: 64°F , 18°C
Humidity: 46%
Barometer: 29.91 inHg , 1012.9 hPa
Clouds: Clear
Visibility: 10 miles , 16 km
2015/08/04 16:54 KNAK 041654Z AUTO 24008KT 200V270 10SM CLR 31/18 A2991 RMK AO2 SLP129 T03110183
KW29 - Stevensville, Maryland, USA
Distance from station: SSE 31mi, 50km
Updated: Tue, 04-Aug-2015 1:32pm EDT

 Wind from SW
Wind: SW 6 mph , 9 km/h
Temperature: 88°F , 31°C
Heat Index: 89°F , 32°C
Dew Point: 63°F , 17°C
Humidity: 43%
Barometer: 29.91 inHg , 1012.9 hPa
Visibility: 10 miles , 16 km
2015/08/04 17:32 KW29 041732Z AUTO 23005KT 10SM 31/17 A2991 RMK AO1
 
KCGS - College Park, Maryland, USA
Distance from station: SW 38mi, 61km
Updated: Tue, 04-Aug-2015 1:25pm EDT
Clear
Clear
 Wind from WNW
Wind: WNW 9 mph , 15 km/h
Temperature: 90°F , 32°C
Heat Index: 91°F , 33°C
Dew Point: 63°F , 17°C
Humidity: 41%
Barometer: 29.91 inHg , 1012.9 hPa
Clouds: Clear
Visibility: 10 miles , 16 km
2015/08/04 17:25 KCGS 041725Z AUTO 29008KT 10SM CLR 32/17 A2991 RMK AO1
KGAI - Gaithersburg, Maryland, USA
Distance from station: WSW 40mi, 65km
Updated: Tue, 04-Aug-2015 1:35pm EDT
Few Clouds
Few Clouds
 Wind from W
Wind: W 8 mph , 13 km/h
Temperature: 88°F , 31°C
Heat Index: 91°F , 33°C
Dew Point: 66°F , 19°C
Humidity: 49%
Barometer: 29.97 inHg , 1014.9 hPa
Clouds: Few Clouds
Visibility: 8 miles , 13 km
Cloud details: Few Clouds 4600 ft
Few Clouds 7000 ft
2015/08/04 17:35 KGAI 041735Z AUTO 27007KT 8SM FEW046 FEW070 31/19 A2997 RMK AO1
 
KTHV - York, Pennsylvania, USA
Distance from station: NNW 40mi, 65km
Updated: Tue, 04-Aug-2015 12:53pm EDT
Few Clouds
Few Clouds
 Wind from W
Wind: W 14 mph , 22 km/h, Gust: 22 mph , 35 km/h
Temperature: 82°F , 28°C
Heat Index: 82°F , 28°C
Dew Point: 61°F , 16°C
Humidity: 48%
Barometer: 29.93 inHg , 1013.5 hPa
Clouds: Few Clouds
Visibility: 10 miles , 16 km
Cloud details: Few Clouds 6000 ft
2015/08/04 16:53 KTHV 041653Z AUTO 26012G19KT 10SM FEW060 28/16 A2993 RMK AO2 SLP132 T02830161
KFDK - Frederick, Maryland, USA
Distance from station: W 47mi, 75km
Updated: Tue, 04-Aug-2015 1:45pm EDT
Clear
Clear
 Wind from W
Wind: W 16 mph , 26 km/h
Temperature: 90°F , 32°C
Heat Index: 93°F , 34°C
Dew Point: 66°F , 19°C
Humidity: 46%
Barometer: 29.95 inHg , 1014.2 hPa
Clouds: Clear
Visibility: 10 miles , 16 km
2015/08/04 17:45 KFDK 041745Z 26014KT 10SM SKC 32/19 A2995
 
KESN - Easton/Newnam, Maryland, USA
Distance from station: SSE 48mi, 78km
Updated: Tue, 04-Aug-2015 1:50pm EDT
Few Clouds
Few Clouds
 Wind from W
Wind: W 8 mph , 13 km/h
Temperature: 90°F , 32°C
Heat Index: 97°F , 36°C
Dew Point: 72°F , 22°C
Humidity: 55%
Barometer: 29.95 inHg , 1014.2 hPa
Clouds: Few Clouds
Visibility: 10 miles , 16 km
Cloud details: Few Clouds 5000 ft
2015/08/04 17:50 KESN 041750Z 26007KT 10SM FEW050 32/22 A2995
KDCA - Washington/Natl, Washington D.c., USA
Distance from station: SW 49mi, 79km
Updated: Tue, 04-Aug-2015 12:52pm EDT
Few Clouds
Few Clouds
 Wind from SSW
Wind: SSW 10 mph , 17 km/h, Gust: 16 mph , 26 km/h
Temperature: 93°F , 34°C
Heat Index: 96°F , 36°C
Dew Point: 66°F , 19°C
Humidity: 41%
Barometer: 29.92 inHg , 1013.2 hPa
Clouds: Few Clouds
Visibility: 10 miles , 16 km
Cloud details: Few Clouds 5000 ft
2015/08/04 16:52 KDCA 041652Z 21009G14KT 10SM FEW050 34/19 A2992 RMK AO2 SLP132 T03390189
 
KLNS - Lancaster, Pennsylvania, USA
Distance from station: N 49mi, 79km
Updated: Tue, 04-Aug-2015 12:53pm EDT
Clear
Clear
 Wind from W
Wind: W 21 mph , 33 km/h
Temperature: 84°F , 29°C
Heat Index: 84°F , 29°C
Dew Point: 61°F , 16°C
Humidity: 45%
Barometer: 29.90 inHg , 1012.5 hPa
Clouds: Clear
Visibility: 10 miles , 16 km
2015/08/04 16:53 KLNS 041653Z 26018KT 10SM CLR 29/16 A2990 RMK AO2 SLP122 T02890161
KILG - Wilmington, Delaware, USA
Distance from station: ENE 50mi, 81km
Updated: Tue, 04-Aug-2015 12:51pm EDT
Clear
Clear
 Wind from WNW
Wind: WNW 15 mph , 24 km/h
Temperature: 90°F , 32°C
Heat Index: 93°F , 34°C
Dew Point: 66°F , 19°C
Humidity: 46%
Barometer: 29.90 inHg , 1012.5 hPa
Clouds: Clear
Visibility: 10 miles , 16 km
2015/08/04 16:51 KILG 041651Z AUTO 29013KT 10SM CLR 32/19 A2990 RMK AO2 SLP123 T03170194 $